sensor_id;sensor_type;location;lat;lon;timestamp;temperature;humidity
2907;DHT22;1463;51.070;16.998;2022-08-19T00:00:40;26.60;99.90
2907;DHT22;1463;51.070;16.998;2022-08-19T00:03:07;26.60;99.90
2907;DHT22;1463;51.070;16.998;2022-08-19T00:05:34;26.60;99.90
2907;DHT22;1463;51.070;16.998;2022-08-19T00:08:02;26.60;99.90
2907;DHT22;1463;51.070;16.998;2022-08-19T00:10:29;26.60;99.90
2907;DHT22;1463;51.070;16.998;2022-08-19T00:12:56;26.50;99.90
2907;DHT22;1463;51.070;16.998;2022-08-19T00:15:23;26.50;99.90
2907;DHT22;1463;51.070;16.998;2022-08-19T00:17:52;26.50;99.90
2907;DHT22;1463;51.070;16.998;2022-08-19T00:20:20;26.50;99.90
2907;DHT22;1463;51.070;16.998;2022-08-19T00:22:47;26.40;99.90
2907;DHT22;1463;51.070;16.998;2022-08-19T00:25:15;26.40;99.90
2907;DHT22;1463;51.070;16.998;2022-08-19T00:27:42;26.40;99.90
2907;DHT22;1463;51.070;16.998;2022-08-19T00:30:10;26.40;99.90
2907;DHT22;1463;51.070;16.998;2022-08-19T00:32:37;26.40;99.90
2907;DHT22;1463;51.070;16.998;2022-08-19T00:35:07;26.40;99.90
2907;DHT22;1463;51.070;16.998;2022-08-19T00:37:35;26.40;99.90
2907;DHT22;1463;51.070;16.998;2022-08-19T00:40:03;26.40;99.90
2907;DHT22;1463;51.070;16.998;2022-08-19T00:42:30;26.40;99.90
2907;DHT22;1463;51.070;16.998;2022-08-19T00:44:57;26.40;99.90
2907;DHT22;1463;51.070;16.998;2022-08-19T00:47:25;26.40;99.90
2907;DHT22;1463;51.070;16.998;2022-08-19T00:49:53;26.40;99.90
2907;DHT22;1463;51.070;16.998;2022-08-19T00:52:23;26.40;99.90
2907;DHT22;1463;51.070;16.998;2022-08-19T00:54:54;26.30;99.90
2907;DHT22;1463;51.070;16.998;2022-08-19T00:57:22;26.30;99.90
2907;DHT22;1463;51.070;16.998;2022-08-19T00:59:51;26.30;99.90
2907;DHT22;1463;51.070;16.998;2022-08-19T01:02:19;26.20;99.90
2907;DHT22;1463;51.070;16.998;2022-08-19T01:04:46;26.10;99.90
2907;DHT22;1463;51.070;16.998;2022-08-19T01:07:13;26.00;99.90
2907;DHT22;1463;51.070;16.998;2022-08-19T01:09:41;26.00;99.90
2907;DHT22;1463;51.070;16.998;2022-08-19T01:12:09;26.00;99.90
2907;DHT22;1463;51.070;16.998;2022-08-19T01:14:36;26.00;99.90
2907;DHT22;1463;51.070;16.998;2022-08-19T01:17:04;25.90;99.90
2907;DHT22;1463;51.070;16.998;2022-08-19T01:19:33;25.90;99.90
2907;DHT22;1463;51.070;16.998;2022-08-19T01:22:02;25.80;99.90
2907;DHT22;1463;51.070;16.998;2022-08-19T01:24:31;25.80;99.90
2907;DHT22;1463;51.070;16.998;2022-08-19T01:26:59;25.70;99.90
2907;DHT22;1463;51.070;16.998;2022-08-19T01:29:26;25.60;99.90
2907;DHT22;1463;51.070;16.998;2022-08-19T01:31:54;25.60;99.90
2907;DHT22;1463;51.070;16.998;2022-08-19T01:34:21;25.60;99.90
2907;DHT22;1463;51.070;16.998;2022-08-19T01:36:49;25.60;99.90
2907;DHT22;1463;51.070;16.998;2022-08-19T01:39:17;25.60;99.90
2907;DHT22;1463;51.070;16.998;2022-08-19T01:41:46;25.60;99.90
2907;DHT22;1463;51.070;16.998;2022-08-19T01:44:13;25.60;99.90
2907;DHT22;1463;51.070;16.998;2022-08-19T01:46:40;25.50;99.90
2907;DHT22;1463;51.070;16.998;2022-08-19T01:49:07;25.60;99.90
2907;DHT22;1463;51.070;16.998;2022-08-19T01:51:34;25.60;99.90
2907;DHT22;1463;51.070;16.998;2022-08-19T01:54:05;25.40;99.90
2907;DHT22;1463;51.070;16.998;2022-08-19T01:56:32;25.50;99.90
2907;DHT22;1463;51.070;16.998;2022-08-19T01:59:01;25.50;99.90
2907;DHT22;1463;51.070;16.998;2022-08-19T02:01:29;25.50;99.90
2907;DHT22;1463;51.070;16.998;2022-08-19T02:03:57;25.50;99.90
2907;DHT22;1463;51.070;16.998;2022-08-19T02:06:25;25.50;99.90
2907;DHT22;1463;51.070;16.998;2022-08-19T02:08:52;25.40;99.90
2907;DHT22;1463;51.070;16.998;2022-08-19T02:11:21;25.50;99.90
2907;DHT22;1463;51.070;16.998;2022-08-19T02:13:48;25.50;99.90
2907;DHT22;1463;51.070;16.998;2022-08-19T02:16:18;25.50;99.90
2907;DHT22;1463;51.070;16.998;2022-08-19T02:18:45;25.50;99.90
2907;DHT22;1463;51.070;16.998;2022-08-19T02:21:14;25.50;99.90
2907;DHT22;1463;51.070;16.998;2022-08-19T02:23:41;25.50;99.90
2907;DHT22;1463;51.070;16.998;2022-08-19T02:26:08;25.50;99.90
2907;DHT22;1463;51.070;16.998;2022-08-19T02:28:35;25.40;99.90
2907;DHT22;1463;51.070;16.998;2022-08-19T02:31:03;25.40;99.90
2907;DHT22;1463;51.070;16.998;2022-08-19T02:33:32;25.40;99.90
2907;DHT22;1463;51.070;16.998;2022-08-19T02:35:59;25.30;99.90
2907;DHT22;1463;51.070;16.998;2022-08-19T02:38:26;25.30;99.90
2907;DHT22;1463;51.070;16.998;2022-08-19T02:40:52;25.20;99.90
2907;DHT22;1463;51.070;16.998;2022-08-19T02:43:21;25.30;99.90
2907;DHT22;1463;51.070;16.998;2022-08-19T02:45:48;25.20;99.90
2907;DHT22;1463;51.070;16.998;2022-08-19T02:48:17;25.20;99.90
2907;DHT22;1463;51.070;16.998;2022-08-19T02:50:46;25.20;99.90
2907;DHT22;1463;51.070;16.998;2022-08-19T02:53:14;25.10;99.90
2907;DHT22;1463;51.070;16.998;2022-08-19T02:55:44;25.10;99.90
2907;DHT22;1463;51.070;16.998;2022-08-19T02:58:12;25.10;99.90
2907;DHT22;1463;51.070;16.998;2022-08-19T03:00:43;25.10;99.90
2907;DHT22;1463;51.070;16.998;2022-08-19T03:03:10;25.10;99.90
2907;DHT22;1463;51.070;16.998;2022-08-19T03:05:38;25.10;99.90
2907;DHT22;1463;51.070;16.998;2022-08-19T03:08:07;25.10;99.90
2907;DHT22;1463;51.070;16.998;2022-08-19T03:10:39;25.00;99.90
2907;DHT22;1463;51.070;16.998;2022-08-19T03:13:07;24.80;99.90
2907;DHT22;1463;51.070;16.998;2022-08-19T03:15:34;24.80;99.90
2907;DHT22;1463;51.070;16.998;2022-08-19T03:18:05;24.70;99.90
2907;DHT22;1463;51.070;16.998;2022-08-19T03:20:32;24.80;99.90
2907;DHT22;1463;51.070;16.998;2022-08-19T03:23:00;24.80;99.90
2907;DHT22;1463;51.070;16.998;2022-08-19T03:25:28;24.80;99.90
2907;DHT22;1463;51.070;16.998;2022-08-19T03:27:55;24.70;99.90
2907;DHT22;1463;51.070;16.998;2022-08-19T03:30:22;24.70;99.90
2907;DHT22;1463;51.070;16.998;2022-08-19T03:32:50;24.70;99.90
2907;DHT22;1463;51.070;16.998;2022-08-19T03:35:17;24.70;99.90
2907;DHT22;1463;51.070;16.998;2022-08-19T03:37:45;24.70;99.90
2907;DHT22;1463;51.070;16.998;2022-08-19T03:40:13;24.70;99.90
2907;DHT22;1463;51.070;16.998;2022-08-19T03:42:41;24.70;99.90
2907;DHT22;1463;51.070;16.998;2022-08-19T03:45:08;24.70;99.90
2907;DHT22;1463;51.070;16.998;2022-08-19T03:47:36;24.70;99.90
2907;DHT22;1463;51.070;16.998;2022-08-19T03:50:04;24.60;99.90
2907;DHT22;1463;51.070;16.998;2022-08-19T03:52:31;24.60;99.90
2907;DHT22;1463;51.070;16.998;2022-08-19T03:54:58;24.60;99.90
2907;DHT22;1463;51.070;16.998;2022-08-19T03:57:26;24.60;99.90
2907;DHT22;1463;51.070;16.998;2022-08-19T03:59:54;24.60;99.90
2907;DHT22;1463;51.070;16.998;2022-08-19T04:02:21;24.60;99.90
2907;DHT22;1463;51.070;16.998;2022-08-19T04:04:49;24.60;99.90
2907;DHT22;1463;51.070;16.998;2022-08-19T04:07:20;24.50;99.90
2907;DHT22;1463;51.070;16.998;2022-08-19T04:09:47;24.50;99.90
2907;DHT22;1463;51.070;16.998;2022-08-19T04:12:14;24.40;99.90
2907;DHT22;1463;51.070;16.998;2022-08-19T04:14:41;24.40;99.90
2907;DHT22;1463;51.070;16.998;2022-08-19T04:17:10;24.40;99.90
2907;DHT22;1463;51.070;16.998;2022-08-19T04:19:38;24.40;99.90
2907;DHT22;1463;51.070;16.998;2022-08-19T04:22:05;24.40;99.90
2907;DHT22;1463;51.070;16.998;2022-08-19T04:24:33;24.50;99.90
2907;DHT22;1463;51.070;16.998;2022-08-19T04:27:01;24.40;99.90
2907;DHT22;1463;51.070;16.998;2022-08-19T04:29:30;24.50;99.90
2907;DHT22;1463;51.070;16.998;2022-08-19T04:31:58;24.50;99.90
2907;DHT22;1463;51.070;16.998;2022-08-19T04:34:27;24.40;99.90
2907;DHT22;1463;51.070;16.998;2022-08-19T04:36:56;24.30;99.90
2907;DHT22;1463;51.070;16.998;2022-08-19T04:39:25;24.10;99.90
2907;DHT22;1463;51.070;16.998;2022-08-19T04:42:13;24.00;99.90
2907;DHT22;1463;51.070;16.998;2022-08-19T04:44:57;24.20;99.90
2907;DHT22;1463;51.070;16.998;2022-08-19T04:47:25;24.10;99.90
2907;DHT22;1463;51.070;16.998;2022-08-19T04:49:54;24.10;99.90
2907;DHT22;1463;51.070;16.998;2022-08-19T04:52:21;24.10;99.90
2907;DHT22;1463;51.070;16.998;2022-08-19T04:54:48;24.10;99.90
2907;DHT22;1463;51.070;16.998;2022-08-19T04:57:15;24.10;99.90
2907;DHT22;1463;51.070;16.998;2022-08-19T04:59:43;24.00;99.90
2907;DHT22;1463;51.070;16.998;2022-08-19T05:02:10;24.10;99.90
2907;DHT22;1463;51.070;16.998;2022-08-19T05:04:37;24.20;99.90
2907;DHT22;1463;51.070;16.998;2022-08-19T05:07:07;24.20;99.90
2907;DHT22;1463;51.070;16.998;2022-08-19T05:09:35;24.20;99.90
2907;DHT22;1463;51.070;16.998;2022-08-19T05:12:02;24.20;99.90
2907;DHT22;1463;51.070;16.998;2022-08-19T05:14:31;24.20;99.90
2907;DHT22;1463;51.070;16.998;2022-08-19T05:16:58;24.20;99.90
2907;DHT22;1463;51.070;16.998;2022-08-19T05:19:25;24.30;99.90
2907;DHT22;1463;51.070;16.998;2022-08-19T05:22:11;24.40;99.90
2907;DHT22;1463;51.070;16.998;2022-08-19T05:24:55;24.30;99.90
2907;DHT22;1463;51.070;16.998;2022-08-19T05:27:23;24.30;99.90
2907;DHT22;1463;51.070;16.998;2022-08-19T05:29:50;24.20;99.90
2907;DHT22;1463;51.070;16.998;2022-08-19T05:32:17;24.10;99.90
2907;DHT22;1463;51.070;16.998;2022-08-19T05:34:44;24.00;99.90
2907;DHT22;1463;51.070;16.998;2022-08-19T05:37:13;24.00;99.90
2907;DHT22;1463;51.070;16.998;2022-08-19T05:39:40;24.00;99.90
2907;DHT22;1463;51.070;16.998;2022-08-19T05:42:08;24.10;99.90
2907;DHT22;1463;51.070;16.998;2022-08-19T05:44:37;24.10;99.90
2907;DHT22;1463;51.070;16.998;2022-08-19T05:47:06;24.20;99.90
2907;DHT22;1463;51.070;16.998;2022-08-19T05:49:34;24.20;99.90
2907;DHT22;1463;51.070;16.998;2022-08-19T05:52:02;24.20;99.90
2907;DHT22;1463;51.070;16.998;2022-08-19T05:54:31;24.30;99.90
2907;DHT22;1463;51.070;16.998;2022-08-19T05:57:00;24.20;99.90
2907;DHT22;1463;51.070;16.998;2022-08-19T05:59:27;24.20;99.90
2907;DHT22;1463;51.070;16.998;2022-08-19T06:01:55;24.20;99.90
2907;DHT22;1463;51.070;16.998;2022-08-19T06:04:22;24.30;99.90
2907;DHT22;1463;51.070;16.998;2022-08-19T06:06:51;24.40;99.90
2907;DHT22;1463;51.070;16.998;2022-08-19T06:09:19;24.50;99.90
2907;DHT22;1463;51.070;16.998;2022-08-19T06:11:49;24.60;99.90
2907;DHT22;1463;51.070;16.998;2022-08-19T06:14:20;24.70;99.90
2907;DHT22;1463;51.070;16.998;2022-08-19T06:16:48;24.70;99.90
2907;DHT22;1463;51.070;16.998;2022-08-19T06:19:17;24.80;99.90
2907;DHT22;1463;51.070;16.998;2022-08-19T06:21:46;24.90;99.90
2907;DHT22;1463;51.070;16.998;2022-08-19T06:24:17;25.00;99.90
2907;DHT22;1463;51.070;16.998;2022-08-19T06:26:45;25.10;99.90
2907;DHT22;1463;51.070;16.998;2022-08-19T06:29:15;25.10;99.90
2907;DHT22;1463;51.070;16.998;2022-08-19T06:31:43;25.20;99.90
2907;DHT22;1463;51.070;16.998;2022-08-19T06:34:12;25.30;99.90
2907;DHT22;1463;51.070;16.998;2022-08-19T06:36:43;25.30;99.90
2907;DHT22;1463;51.070;16.998;2022-08-19T06:39:11;25.40;99.90
2907;DHT22;1463;51.070;16.998;2022-08-19T06:41:39;25.40;99.90
2907;DHT22;1463;51.070;16.998;2022-08-19T06:44:07;25.40;99.90
2907;DHT22;1463;51.070;16.998;2022-08-19T06:46:36;25.50;99.90
2907;DHT22;1463;51.070;16.998;2022-08-19T06:49:03;25.50;99.90
2907;DHT22;1463;51.070;16.998;2022-08-19T06:51:31;25.60;99.90
2907;DHT22;1463;51.070;16.998;2022-08-19T06:53:59;25.60;99.90
2907;DHT22;1463;51.070;16.998;2022-08-19T06:56:28;25.60;99.90
2907;DHT22;1463;51.070;16.998;2022-08-19T06:59:00;25.60;99.90
2907;DHT22;1463;51.070;16.998;2022-08-19T07:01:27;25.80;99.90
2907;DHT22;1463;51.070;16.998;2022-08-19T07:03:56;25.80;99.90
2907;DHT22;1463;51.070;16.998;2022-08-19T07:06:23;25.80;99.90
2907;DHT22;1463;51.070;16.998;2022-08-19T07:08:51;25.80;99.90
2907;DHT22;1463;51.070;16.998;2022-08-19T07:11:18;25.90;99.90
2907;DHT22;1463;51.070;16.998;2022-08-19T07:13:46;25.90;99.90
2907;DHT22;1463;51.070;16.998;2022-08-19T07:16:15;26.00;99.90
2907;DHT22;1463;51.070;16.998;2022-08-19T07:18:42;26.10;99.90
2907;DHT22;1463;51.070;16.998;2022-08-19T07:21:12;26.20;99.90
2907;DHT22;1463;51.070;16.998;2022-08-19T07:23:39;26.30;99.90
2907;DHT22;1463;51.070;16.998;2022-08-19T07:26:07;26.40;99.90
2907;DHT22;1463;51.070;16.998;2022-08-19T07:28:34;26.40;99.90
2907;DHT22;1463;51.070;16.998;2022-08-19T07:31:05;26.50;99.90
2907;DHT22;1463;51.070;16.998;2022-08-19T07:33:32;26.60;99.90
2907;DHT22;1463;51.070;16.998;2022-08-19T07:36:02;26.60;99.90
2907;DHT22;1463;51.070;16.998;2022-08-19T07:38:31;26.70;99.90
2907;DHT22;1463;51.070;16.998;2022-08-19T07:40:58;26.80;99.90
2907;DHT22;1463;51.070;16.998;2022-08-19T07:43:26;26.90;99.90
2907;DHT22;1463;51.070;16.998;2022-08-19T07:45:53;27.00;99.90
2907;DHT22;1463;51.070;16.998;2022-08-19T07:48:22;27.10;99.90
2907;DHT22;1463;51.070;16.998;2022-08-19T07:50:51;27.10;99.90
2907;DHT22;1463;51.070;16.998;2022-08-19T07:53:18;27.20;99.90
2907;DHT22;1463;51.070;16.998;2022-08-19T07:55:47;27.30;99.90
2907;DHT22;1463;51.070;16.998;2022-08-19T07:58:15;27.40;99.90
2907;DHT22;1463;51.070;16.998;2022-08-19T08:00:43;27.50;99.90
2907;DHT22;1463;51.070;16.998;2022-08-19T08:03:11;27.60;99.90
2907;DHT22;1463;51.070;16.998;2022-08-19T08:05:38;27.70;99.90
2907;DHT22;1463;51.070;16.998;2022-08-19T08:08:25;27.70;99.90
2907;DHT22;1463;51.070;16.998;2022-08-19T08:11:17;27.90;99.90
2907;DHT22;1463;51.070;16.998;2022-08-19T08:13:45;27.90;99.90
2907;DHT22;1463;51.070;16.998;2022-08-19T08:16:24;28.10;99.90
2907;DHT22;1463;51.070;16.998;2022-08-19T08:18:55;28.10;99.90
2907;DHT22;1463;51.070;16.998;2022-08-19T08:21:22;28.20;99.90
2907;DHT22;1463;51.070;16.998;2022-08-19T08:23:49;28.20;99.90
2907;DHT22;1463;51.070;16.998;2022-08-19T08:26:19;28.20;99.90
2907;DHT22;1463;51.070;16.998;2022-08-19T08:28:46;28.30;99.90
2907;DHT22;1463;51.070;16.998;2022-08-19T08:31:13;28.40;99.90
2907;DHT22;1463;51.070;16.998;2022-08-19T08:33:41;28.50;99.90
2907;DHT22;1463;51.070;16.998;2022-08-19T08:36:08;28.50;99.90
2907;DHT22;1463;51.070;16.998;2022-08-19T08:38:36;28.50;99.90
2907;DHT22;1463;51.070;16.998;2022-08-19T08:41:05;28.40;99.90
2907;DHT22;1463;51.070;16.998;2022-08-19T08:43:35;28.40;99.90
2907;DHT22;1463;51.070;16.998;2022-08-19T08:46:04;28.30;99.90
2907;DHT22;1463;51.070;16.998;2022-08-19T08:48:35;28.50;99.90
2907;DHT22;1463;51.070;16.998;2022-08-19T08:51:03;28.60;99.90
2907;DHT22;1463;51.070;16.998;2022-08-19T08:53:31;28.80;99.90
2907;DHT22;1463;51.070;16.998;2022-08-19T08:56:00;28.90;99.90
2907;DHT22;1463;51.070;16.998;2022-08-19T08:58:30;29.00;99.90
2907;DHT22;1463;51.070;16.998;2022-08-19T09:01:00;29.10;99.90
2907;DHT22;1463;51.070;16.998;2022-08-19T09:03:27;29.20;99.90
2907;DHT22;1463;51.070;16.998;2022-08-19T09:05:57;29.20;99.90
2907;DHT22;1463;51.070;16.998;2022-08-19T09:08:28;29.30;99.90
2907;DHT22;1463;51.070;16.998;2022-08-19T09:10:58;29.40;99.90
2907;DHT22;1463;51.070;16.998;2022-08-19T09:13:30;29.50;99.90
2907;DHT22;1463;51.070;16.998;2022-08-19T09:16:02;29.50;99.90
2907;DHT22;1463;51.070;16.998;2022-08-19T09:18:38;29.60;99.90
2907;DHT22;1463;51.070;16.998;2022-08-19T09:21:05;29.70;99.90
2907;DHT22;1463;51.070;16.998;2022-08-19T09:23:33;29.60;99.90
2907;DHT22;1463;51.070;16.998;2022-08-19T09:26:00;29.70;99.90
2907;DHT22;1463;51.070;16.998;2022-08-19T09:28:28;29.80;99.90
2907;DHT22;1463;51.070;16.998;2022-08-19T09:30:55;29.90;99.90
2907;DHT22;1463;51.070;16.998;2022-08-19T09:33:23;30.00;99.90
2907;DHT22;1463;51.070;16.998;2022-08-19T09:36:00;30.00;99.90
2907;DHT22;1463;51.070;16.998;2022-08-19T09:38:28;30.00;99.90
2907;DHT22;1463;51.070;16.998;2022-08-19T09:40:56;30.20;99.90
2907;DHT22;1463;51.070;16.998;2022-08-19T09:43:23;30.30;99.90
2907;DHT22;1463;51.070;16.998;2022-08-19T09:45:53;30.40;99.80
2907;DHT22;1463;51.070;16.998;2022-08-19T09:48:20;30.40;99.90
2907;DHT22;1463;51.070;16.998;2022-08-19T09:50:49;30.30;99.90
2907;DHT22;1463;51.070;16.998;2022-08-19T09:53:16;30.30;99.90
2907;DHT22;1463;51.070;16.998;2022-08-19T09:55:43;30.20;99.90
2907;DHT22;1463;51.070;16.998;2022-08-19T09:58:11;30.10;99.90
2907;DHT22;1463;51.070;16.998;2022-08-19T10:00:38;30.10;99.90
2907;DHT22;1463;51.070;16.998;2022-08-19T10:03:05;30.30;99.60
2907;DHT22;1463;51.070;16.998;2022-08-19T10:05:32;30.40;99.20
2907;DHT22;1463;51.070;16.998;2022-08-19T10:08:16;30.50;99.70
2907;DHT22;1463;51.070;16.998;2022-08-19T10:10:44;30.50;99.20
2907;DHT22;1463;51.070;16.998;2022-08-19T10:13:12;30.60;98.00
2907;DHT22;1463;51.070;16.998;2022-08-19T10:15:39;30.60;98.50
2907;DHT22;1463;51.070;16.998;2022-08-19T10:18:07;30.60;97.90
2907;DHT22;1463;51.070;16.998;2022-08-19T10:20:34;30.80;98.00
2907;DHT22;1463;51.070;16.998;2022-08-19T10:23:02;30.80;96.70
2907;DHT22;1463;51.070;16.998;2022-08-19T10:25:31;30.90;96.50
2907;DHT22;1463;51.070;16.998;2022-08-19T10:27:59;31.00;94.60
2907;DHT22;1463;51.070;16.998;2022-08-19T10:30:26;31.00;93.50
2907;DHT22;1463;51.070;16.998;2022-08-19T10:32:54;31.00;93.60
2907;DHT22;1463;51.070;16.998;2022-08-19T10:35:21;31.00;93.60
2907;DHT22;1463;51.070;16.998;2022-08-19T10:37:49;31.00;93.70
2907;DHT22;1463;51.070;16.998;2022-08-19T10:40:16;31.10;92.90
2907;DHT22;1463;51.070;16.998;2022-08-19T10:42:45;31.20;93.40
2907;DHT22;1463;51.070;16.998;2022-08-19T10:45:12;31.20;93.50
2907;DHT22;1463;51.070;16.998;2022-08-19T10:47:39;31.20;93.20
2907;DHT22;1463;51.070;16.998;2022-08-19T10:50:07;31.30;92.80
2907;DHT22;1463;51.070;16.998;2022-08-19T10:52:51;31.30;92.80
2907;DHT22;1463;51.070;16.998;2022-08-19T10:55:19;31.30;93.50
2907;DHT22;1463;51.070;16.998;2022-08-19T10:58:06;31.30;93.30
2907;DHT22;1463;51.070;16.998;2022-08-19T11:00:36;31.40;93.10
2907;DHT22;1463;51.070;16.998;2022-08-19T11:03:03;31.50;92.00
2907;DHT22;1463;51.070;16.998;2022-08-19T11:05:31;31.70;91.80
2907;DHT22;1463;51.070;16.998;2022-08-19T11:07:58;32.00;90.90
2907;DHT22;1463;51.070;16.998;2022-08-19T11:10:26;31.80;92.30
2907;DHT22;1463;51.070;16.998;2022-08-19T11:12:53;31.70;91.70
2907;DHT22;1463;51.070;16.998;2022-08-19T11:15:22;31.80;90.30
2907;DHT22;1463;51.070;16.998;2022-08-19T11:17:51;31.80;92.90
2907;DHT22;1463;51.070;16.998;2022-08-19T11:20:19;31.70;90.60
2907;DHT22;1463;51.070;16.998;2022-08-19T11:22:49;31.70;93.40
2907;DHT22;1463;51.070;16.998;2022-08-19T11:25:17;31.60;92.20
2907;DHT22;1463;51.070;16.998;2022-08-19T11:27:45;31.40;92.10
2907;DHT22;1463;51.070;16.998;2022-08-19T11:30:12;31.30;91.60
2907;DHT22;1463;51.070;16.998;2022-08-19T11:32:42;31.60;90.70
2907;DHT22;1463;51.070;16.998;2022-08-19T11:35:09;31.90;87.70
2907;DHT22;1463;51.070;16.998;2022-08-19T11:37:37;32.00;91.80
2907;DHT22;1463;51.070;16.998;2022-08-19T11:40:05;31.70;90.20
2907;DHT22;1463;51.070;16.998;2022-08-19T11:42:32;31.70;84.10
2907;DHT22;1463;51.070;16.998;2022-08-19T11:45:16;31.70;85.70
2907;DHT22;1463;51.070;16.998;2022-08-19T11:47:45;31.50;90.40
2907;DHT22;1463;51.070;16.998;2022-08-19T11:50:16;31.40;83.40
2907;DHT22;1463;51.070;16.998;2022-08-19T11:52:45;31.50;87.40
2907;DHT22;1463;51.070;16.998;2022-08-19T11:55:15;31.30;87.50
2907;DHT22;1463;51.070;16.998;2022-08-19T11:57:42;31.00;86.70
2907;DHT22;1463;51.070;16.998;2022-08-19T12:00:10;30.90;86.70
2907;DHT22;1463;51.070;16.998;2022-08-19T12:02:38;31.00;85.40
2907;DHT22;1463;51.070;16.998;2022-08-19T12:05:07;31.00;86.30
2907;DHT22;1463;51.070;16.998;2022-08-19T12:07:35;31.10;87.70
2907;DHT22;1463;51.070;16.998;2022-08-19T12:10:03;31.40;82.40
2907;DHT22;1463;51.070;16.998;2022-08-19T12:12:30;31.70;81.70
2907;DHT22;1463;51.070;16.998;2022-08-19T12:14:57;31.80;80.40
2907;DHT22;1463;51.070;16.998;2022-08-19T12:17:25;31.70;81.50
2907;DHT22;1463;51.070;16.998;2022-08-19T12:19:52;31.70;84.40
2907;DHT22;1463;51.070;16.998;2022-08-19T12:22:21;31.50;80.30
2907;DHT22;1463;51.070;16.998;2022-08-19T12:24:48;31.50;82.30
2907;DHT22;1463;51.070;16.998;2022-08-19T12:27:18;31.70;81.80
2907;DHT22;1463;51.070;16.998;2022-08-19T12:29:46;31.70;81.10
2907;DHT22;1463;51.070;16.998;2022-08-19T12:32:14;31.70;85.40
2907;DHT22;1463;51.070;16.998;2022-08-19T12:34:42;31.70;77.00
2907;DHT22;1463;51.070;16.998;2022-08-19T12:37:10;31.70;80.80
2907;DHT22;1463;51.070;16.998;2022-08-19T12:39:41;31.60;80.60
2907;DHT22;1463;51.070;16.998;2022-08-19T12:42:08;31.70;78.30
2907;DHT22;1463;51.070;16.998;2022-08-19T12:44:36;31.70;77.70
2907;DHT22;1463;51.070;16.998;2022-08-19T12:47:05;31.90;77.80
2907;DHT22;1463;51.070;16.998;2022-08-19T12:49:32;32.00;78.70
2907;DHT22;1463;51.070;16.998;2022-08-19T12:52:02;31.90;76.60
2907;DHT22;1463;51.070;16.998;2022-08-19T12:54:30;32.10;76.00
2907;DHT22;1463;51.070;16.998;2022-08-19T12:56:59;32.00;77.80
2907;DHT22;1463;51.070;16.998;2022-08-19T12:59:26;32.00;74.80
2907;DHT22;1463;51.070;16.998;2022-08-19T13:01:53;32.10;73.90
2907;DHT22;1463;51.070;16.998;2022-08-19T13:04:20;32.20;73.70
2907;DHT22;1463;51.070;16.998;2022-08-19T13:06:48;32.10;77.30
2907;DHT22;1463;51.070;16.998;2022-08-19T13:09:15;31.90;77.60
2907;DHT22;1463;51.070;16.998;2022-08-19T13:11:42;31.80;78.10
2907;DHT22;1463;51.070;16.998;2022-08-19T13:14:10;32.00;75.60
2907;DHT22;1463;51.070;16.998;2022-08-19T13:16:39;32.10;75.80
2907;DHT22;1463;51.070;16.998;2022-08-19T13:19:08;32.20;77.00
2907;DHT22;1463;51.070;16.998;2022-08-19T13:21:36;31.80;80.50
2907;DHT22;1463;51.070;16.998;2022-08-19T13:24:03;31.80;78.90
2907;DHT22;1463;51.070;16.998;2022-08-19T13:26:30;31.90;77.90
2907;DHT22;1463;51.070;16.998;2022-08-19T13:28:57;32.00;76.20
2907;DHT22;1463;51.070;16.998;2022-08-19T13:31:43;32.20;77.30
2907;DHT22;1463;51.070;16.998;2022-08-19T13:34:28;32.20;77.10
2907;DHT22;1463;51.070;16.998;2022-08-19T13:36:56;32.10;76.30
2907;DHT22;1463;51.070;16.998;2022-08-19T13:39:24;32.00;75.00
2907;DHT22;1463;51.070;16.998;2022-08-19T13:41:51;32.00;76.70
2907;DHT22;1463;51.070;16.998;2022-08-19T13:44:18;31.80;78.80
2907;DHT22;1463;51.070;16.998;2022-08-19T13:46:47;31.70;77.60
2907;DHT22;1463;51.070;16.998;2022-08-19T13:49:18;31.50;77.40
2907;DHT22;1463;51.070;16.998;2022-08-19T13:51:46;31.50;78.20
2907;DHT22;1463;51.070;16.998;2022-08-19T13:54:13;31.40;79.40
2907;DHT22;1463;51.070;16.998;2022-08-19T13:56:40;31.40;78.40
2907;DHT22;1463;51.070;16.998;2022-08-19T13:59:07;31.40;80.20
2907;DHT22;1463;51.070;16.998;2022-08-19T14:01:35;31.40;80.20
2907;DHT22;1463;51.070;16.998;2022-08-19T14:04:04;31.30;78.80
2907;DHT22;1463;51.070;16.998;2022-08-19T14:06:31;31.30;80.70
2907;DHT22;1463;51.070;16.998;2022-08-19T14:08:59;31.20;81.20
2907;DHT22;1463;51.070;16.998;2022-08-19T14:11:27;31.00;82.30
2907;DHT22;1463;51.070;16.998;2022-08-19T14:13:54;30.90;83.10
2907;DHT22;1463;51.070;16.998;2022-08-19T14:16:21;30.90;80.50
2907;DHT22;1463;51.070;16.998;2022-08-19T14:18:48;30.90;81.10
2907;DHT22;1463;51.070;16.998;2022-08-19T14:21:18;30.90;81.30
2907;DHT22;1463;51.070;16.998;2022-08-19T14:23:46;30.80;84.60
2907;DHT22;1463;51.070;16.998;2022-08-19T14:26:14;30.80;85.60
2907;DHT22;1463;51.070;16.998;2022-08-19T14:28:41;30.80;86.50
2907;DHT22;1463;51.070;16.998;2022-08-19T14:31:09;30.80;87.30
2907;DHT22;1463;51.070;16.998;2022-08-19T14:33:36;30.80;86.70
2907;DHT22;1463;51.070;16.998;2022-08-19T14:36:03;30.80;87.90
2907;DHT22;1463;51.070;16.998;2022-08-19T14:38:32;30.70;89.20
2907;DHT22;1463;51.070;16.998;2022-08-19T14:41:10;30.50;89.90
2907;DHT22;1463;51.070;16.998;2022-08-19T14:43:38;30.30;90.60
2907;DHT22;1463;51.070;16.998;2022-08-19T14:46:05;30.20;91.20
2907;DHT22;1463;51.070;16.998;2022-08-19T14:48:33;30.00;92.00
2907;DHT22;1463;51.070;16.998;2022-08-19T14:51:01;29.90;93.00
2907;DHT22;1463;51.070;16.998;2022-08-19T14:53:29;29.70;94.00
2907;DHT22;1463;51.070;16.998;2022-08-19T14:55:57;29.70;94.00
2907;DHT22;1463;51.070;16.998;2022-08-19T14:58:24;29.80;94.20
2907;DHT22;1463;51.070;16.998;2022-08-19T15:00:51;29.90;94.10
2907;DHT22;1463;51.070;16.998;2022-08-19T15:03:19;30.00;93.60
2907;DHT22;1463;51.070;16.998;2022-08-19T15:05:46;30.00;93.90
2907;DHT22;1463;51.070;16.998;2022-08-19T15:08:13;30.00;94.90
2907;DHT22;1463;51.070;16.998;2022-08-19T15:10:40;30.10;96.20
2907;DHT22;1463;51.070;16.998;2022-08-19T15:13:09;30.10;97.70
2907;DHT22;1463;51.070;16.998;2022-08-19T15:15:36;30.00;99.30
2907;DHT22;1463;51.070;16.998;2022-08-19T15:18:04;30.00;99.90
2907;DHT22;1463;51.070;16.998;2022-08-19T15:20:31;29.90;99.90
2907;DHT22;1463;51.070;16.998;2022-08-19T15:22:58;29.90;99.90
2907;DHT22;1463;51.070;16.998;2022-08-19T15:25:26;29.90;99.90
2907;DHT22;1463;51.070;16.998;2022-08-19T15:27:54;30.00;99.90
2907;DHT22;1463;51.070;16.998;2022-08-19T15:30:23;30.00;99.90
2907;DHT22;1463;51.070;16.998;2022-08-19T15:32:51;30.00;99.90
2907;DHT22;1463;51.070;16.998;2022-08-19T15:35:20;30.00;99.90
2907;DHT22;1463;51.070;16.998;2022-08-19T15:37:48;29.90;99.90
2907;DHT22;1463;51.070;16.998;2022-08-19T15:40:15;29.80;99.90
2907;DHT22;1463;51.070;16.998;2022-08-19T15:42:42;29.80;99.90
2907;DHT22;1463;51.070;16.998;2022-08-19T15:45:10;29.70;99.90
2907;DHT22;1463;51.070;16.998;2022-08-19T15:47:42;29.70;99.90
2907;DHT22;1463;51.070;16.998;2022-08-19T15:50:11;29.60;99.90
2907;DHT22;1463;51.070;16.998;2022-08-19T15:52:46;29.70;99.90